Terminal Aerodrome Forecast
Issued by NWS Wakefield, VA

Home | Current Version | Previous Version | Text Only | Print | Product List | Glossary On
Versions: 1 2 3 4 5 6 7 8 9 10 11 12 13 14 15 16 17 18 19 20 21 22 23 24 25 26 27 28 29 30 31 32
000
FTUS41 KAKQ 161439 AAA
TAFECG
TAF AMD
KECG 161439Z 1615/1712 02007KT P6SM BKN025
     FM161600 03007KT P6SM SCT030
     FM161900 05007KT P6SM SCT060
     FM170700 VRB03KT 4SM BR SCT030=

USA.gov is the U.S. government's official web portal to all federal, state and local government web resources and services.